Time;durP1;ratioP1;P1;durP2;ratioP2;P2;SDS_P1;SDS_P2;PMS_P1;PMS_P2;Temp;Humidity;BMP_temperature;BMP_pressure;BME280_temperature;BME280_humidity;BME280_pressure;Samples;Min_cycle;Max_cycle;Signal;HPM_P1;HPM_P2
2022/12/12 00:02:06;;;;;;;60.23;34.33;;;;;;;-2.98;95.42;97464.45;2190871;81;21019;-85
2022/12/12 00:05:07;;;;;;;68.53;35.73;;;;;;;-2.99;95.41;97462.71;2190823;81;20925;-84
2022/12/12 00:08:07;;;;;;;59.80;35.17;;;;;;;-2.96;95.55;97469.63;2190180;81;20988;-84
2022/12/12 00:11:07;;;;;;;64.37;33.90;;;;;;;-2.93;95.60;97478.29;2190499;81;20932;-84
2022/12/12 00:14:08;;;;;;;60.03;32.57;;;;;;;-2.92;95.47;97474.05;2190454;81;20980;-83
2022/12/12 00:17:08;;;;;;;65.70;33.33;;;;;;;-2.90;95.47;97480.97;2190491;81;21003;-84
2022/12/12 00:20:09;;;;;;;64.43;34.03;;;;;;;-2.92;95.29;97479.16;2190559;81;21031;-84
2022/12/12 00:23:09;;;;;;;62.80;33.23;;;;;;;-2.89;95.45;97480.16;2190731;81;20960;-84
2022/12/12 00:26:10;;;;;;;60.57;33.10;;;;;;;-2.85;95.44;97484.99;2190238;81;20942;-83
2022/12/12 00:29:10;;;;;;;67.47;35.80;;;;;;;-2.84;95.07;97488.02;2190053;81;20953;-84
2022/12/12 00:32:10;;;;;;;59.57;30.33;;;;;;;-2.84;95.46;97490.56;2190385;81;20940;-84
2022/12/12 00:35:11;;;;;;;60.80;34.37;;;;;;;-2.84;95.70;97493.13;2190146;81;20956;-84
2022/12/12 00:38:11;;;;;;;53.77;30.03;;;;;;;-2.84;95.72;97498.23;2190148;81;21423;-84
2022/12/12 00:41:11;;;;;;;50.87;27.03;;;;;;;-2.84;95.47;97497.36;2190267;81;20964;-84
2022/12/12 00:44:12;;;;;;;51.57;27.63;;;;;;;-2.83;95.42;97489.77;2190265;81;20948;-83
2022/12/12 00:47:12;;;;;;;47.67;27.93;;;;;;;-2.82;94.98;97497.02;2190236;81;21295;-83
2022/12/12 00:50:13;;;;;;;49.70;29.07;;;;;;;-2.81;95.25;97496.20;2190182;81;20944;-83
2022/12/12 00:53:13;;;;;;;54.77;31.07;;;;;;;-2.80;94.83;97500.10;2190283;81;20913;-83
2022/12/12 00:56:13;;;;;;;51.47;28.73;;;;;;;-2.79;94.76;97500.58;2190238;81;20921;-83
2022/12/12 00:59:14;;;;;;;52.77;29.63;;;;;;;-2.74;94.79;97500.36;2189982;81;20937;-83
2022/12/12 01:02:14;;;;;;;47.43;28.27;;;;;;;-2.74;94.55;97502.04;2190000;81;20897;-83
2022/12/12 01:05:15;;;;;;;53.97;30.13;;;;;;;-2.73;94.49;97501.23;2190249;81;20933;-83
2022/12/12 01:08:15;;;;;;;55.60;30.37;;;;;;;-2.76;94.44;97504.53;2189948;81;21353;-84
2022/12/12 01:11:16;;;;;;;52.30;30.50;;;;;;;-2.78;94.54;97506.15;2190080;81;20921;-83
2022/12/12 01:14:16;;;;;;;48.20;27.17;;;;;;;-2.75;94.61;97502.85;2189964;81;20992;-82
2022/12/12 01:17:16;;;;;;;52.97;30.83;;;;;;;-2.77;94.62;97496.80;2190175;81;20932;-82
2022/12/12 01:20:17;;;;;;;49.03;27.70;;;;;;;-2.74;94.61;97496.94;2190003;81;21011;-82
2022/12/12 01:23:17;;;;;;;55.70;32.97;;;;;;;-2.76;94.59;97490.89;2190055;81;20928;-82
2022/12/12 01:26:17;;;;;;;53.07;30.13;;;;;;;-2.81;94.58;97488.14;2190277;81;21004;-82
2022/12/12 01:29:18;;;;;;;50.80;29.27;;;;;;;-2.81;94.77;97494.53;2190086;81;20905;-82
2022/12/12 01:32:18;;;;;;;49.73;28.87;;;;;;;-2.84;94.64;97485.46;2189683;81;21415;-82
2022/12/12 01:35:19;;;;;;;56.47;31.00;;;;;;;-2.87;94.74;97478.95;2190060;81;20968;-82
2022/12/12 01:38:19;;;;;;;49.77;29.37;;;;;;;-2.89;94.68;97477.61;2190270;81;21015;-82
2022/12/12 01:41:19;;;;;;;44.80;27.67;;;;;;;-2.92;94.44;97476.61;2190395;81;20944;-84
2022/12/12 01:44:20;;;;;;;46.13;27.83;;;;;;;-2.97;94.39;97478.09;2190065;81;20972;-83
2022/12/12 01:47:20;;;;;;;46.10;26.07;;;;;;;-2.99;94.32;97477.16;2190064;81;20968;-83
2022/12/12 01:50:21;;;;;;;52.20;28.53;;;;;;;-3.01;94.31;97469.84;2190127;81;20960;-84
2022/12/12 01:53:21;;;;;;;44.30;26.97;;;;;;;-3.05;94.43;97462.86;2190239;81;20961;-83
2022/12/12 01:56:22;;;;;;;42.50;25.53;;;;;;;-3.07;94.58;97461.52;2190162;81;21272;-83
2022/12/12 01:59:22;;;;;;;55.90;27.43;;;;;;;-3.06;94.72;97459.84;2190112;81;20960;-84
2022/12/12 02:02:22;;;;;;;54.93;30.37;;;;;;;-3.02;94.94;97461.71;2190837;81;20964;-84
2022/12/12 02:05:23;;;;;;;50.33;28.93;;;;;;;-2.99;94.89;97458.88;2190062;81;20945;-84
2022/12/12 02:08:23;;;;;;;44.60;23.97;;;;;;;-3.01;94.60;97456.67;2190108;81;20995;-84
2022/12/12 02:11:24;;;;;;;46.93;26.23;;;;;;;-3.03;94.30;97454.86;2190232;81;20932;-83
2022/12/12 02:14:24;;;;;;;44.10;27.37;;;;;;;-3.09;94.37;97442.71;2190030;81;20960;-83
2022/12/12 02:17:24;;;;;;;44.90;26.07;;;;;;;-3.11;94.43;97440.91;2190328;81;20925;-83
2022/12/12 02:20:25;;;;;;;44.67;26.97;;;;;;;-3.15;94.48;97436.48;2182484;81;21357;-84
2022/12/12 02:23:25;;;;;;;44.80;26.23;;;;;;;-3.16;94.60;97443.26;2173537;81;20937;-84
2022/12/12 02:26:26;;;;;;;43.37;25.07;;;;;;;-3.14;94.74;97445.47;2173693;81;20897;-84
2022/12/12 02:29:26;;;;;;;42.73;24.97;;;;;;;-3.13;94.68;97456.16;2173626;81;20913;-83
2022/12/12 02:32:27;;;;;;;41.27;24.43;;;;;;;-3.10;94.70;97451.17;2173317;81;21377;-83
2022/12/12 02:35:27;;;;;;;45.23;24.93;;;;;;;-3.05;94.63;97448.82;2173518;81;20941;-83
2022/12/12 02:38:27;;;;;;;44.40;24.67;;;;;;;-3.03;94.52;97457.01;2173268;81;21027;-82
2022/12/12 02:41:28;;;;;;;39.57;24.67;;;;;;;-3.02;94.47;97459.16;2173550;81;20938;-83
2022/12/12 02:44:28;;;;;;;43.60;24.33;;;;;;;-2.97;94.53;97456.39;2173446;81;20936;-84
2022/12/12 02:47:28;;;;;;;39.33;24.23;;;;;;;-2.97;94.32;97460.22;2173484;81;20949;-84
2022/12/12 02:50:29;;;;;;;41.47;23.67;;;;;;;-2.95;94.30;97461.16;2173660;81;21012;-84
2022/12/12 02:53:29;;;;;;;46.57;25.80;;;;;;;-2.93;94.52;97462.97;2173477;81;20961;-82
2022/12/12 02:56:30;;;;;;;40.60;23.47;;;;;;;-2.89;94.45;97461.41;2173331;81;20925;-82
2022/12/12 02:59:30;;;;;;;43.10;25.43;;;;;;;-2.89;94.34;97464.84;2173503;81;20992;-83
2022/12/12 03:02:30;;;;;;;42.53;23.37;;;;;;;-2.90;94.44;97468.61;2173359;82;21050;-82
2022/12/12 03:08:51;;;;;;;42.37;24.30;;;;;;;-2.95;94.76;97449.67;2173086;82;21005;-82
2022/12/12 03:11:51;;;;;;;39.07;22.90;;;;;;;-2.97;94.85;97455.12;2171921;82;20988;-82
2022/12/12 03:14:52;;;;;;;42.60;22.97;;;;;;;-2.99;95.06;97462.71;2173306;81;20923;-83
2022/12/12 03:17:52;;;;;;;42.33;22.67;;;;;;;-3.01;95.44;97457.07;2173012;82;20988;-83
2022/12/12 03:20:53;;;;;;;37.53;22.70;;;;;;;-3.01;95.67;97454.52;2182074;81;20946;-83
2022/12/12 03:23:53;;;;;;;40.90;24.27;;;;;;;-2.98;95.78;97455.92;2190025;81;20917;-83
2022/12/12 03:26:54;;;;;;;46.03;24.70;;;;;;;-2.93;95.52;97456.99;2189959;81;20977;-82
2022/12/12 03:29:54;;;;;;;38.37;21.97;;;;;;;-2.90;95.48;97457.12;2189830;81;21340;-83
2022/12/12 03:32:54;;;;;;;41.47;22.77;;;;;;;-2.90;95.31;97459.67;2189695;81;20964;-82
2022/12/12 03:35:55;;;;;;;37.20;22.70;;;;;;;-2.88;95.54;97463.16;2190106;81;20916;-82
2022/12/12 03:38:58;;;;;;;40.47;22.13;;;;;;;-2.88;95.55;97459.33;2189645;81;21007;-83
2022/12/12 03:41:59;;;;;;;39.53;22.63;;;;;;;-2.84;95.59;97462.88;2189976;81;20897;-84
2022/12/12 03:44:59;;;;;;;38.63;22.83;;;;;;;-2.81;95.62;97457.50;2189900;81;21372;-83
2022/12/12 03:47:59;;;;;;;38.33;21.60;;;;;;;-2.79;95.45;97454.60;2189897;81;20975;-83
2022/12/12 03:51:00;;;;;;;43.97;22.87;;;;;;;-2.78;95.55;97455.07;2190039;81;20984;-83
2022/12/12 03:54:00;;;;;;;39.57;22.13;;;;;;;-2.78;95.71;97455.07;2190000;81;21000;-84
2022/12/12 03:57:01;;;;;;;46.87;23.93;;;;;;;-2.78;95.76;97458.91;2189796;81;20916;-83
2022/12/12 04:00:01;;;;;;;39.43;24.00;;;;;;;-2.79;95.80;97460.98;2190073;81;20964;-83
2022/12/12 04:03:01;;;;;;;40.63;23.93;;;;;;;-2.76;95.80;97460.24;2190087;81;20925;-83
2022/12/12 04:12:58;;;;;;;45.37;24.60;;;;;;;-2.70;95.91;97458.81;2190003;81;21038;-84
2022/12/12 04:15:58;;;;;;;43.63;25.67;;;;;;;-2.66;95.93;97459.41;2189991;81;20976;-82
2022/12/12 04:18:58;;;;;;;40.90;23.80;;;;;;;-2.66;95.96;97456.84;2189866;81;21347;-82
2022/12/12 04:25:18;;;;;;;41.00;22.10;;;;;;;-2.63;96.08;97451.86;2189024;81;20985;-83
2022/12/12 04:28:18;;;;;;;39.60;21.70;;;;;;;-2.62;96.11;97455.29;2189271;81;20972;-83
2022/12/12 04:31:19;;;;;;;35.23;20.87;;;;;;;-2.61;96.26;97447.69;2189379;81;21578;-83
2022/12/12 04:34:19;;;;;;;43.57;23.20;;;;;;;-2.64;96.11;97443.73;2188566;81;20992;-82
2022/12/12 04:37:20;;;;;;;45.20;25.23;;;;;;;-2.52;97.17;97448.90;2188311;81;20940;-81
2022/12/12 04:40:20;;;;;;;44.43;23.83;;;;;;;-2.51;96.28;97449.37;2189045;81;21019;-82
2022/12/12 04:43:20;;;;;;;37.37;20.23;;;;;;;-2.52;96.12;97452.73;2189563;81;21439;-83
2022/12/12 04:46:21;;;;;;;39.00;22.80;;;;;;;-2.34;97.05;97453.06;2188601;81;20956;-82
2022/12/12 04:49:21;;;;;;;42.47;23.17;;;;;;;-2.08;97.54;97448.95;2188944;81;20964;-82
2022/12/12 04:52:22;;;;;;;43.73;24.63;;;;;;;-2.17;95.93;97448.61;2189283;81;20967;-81
2022/12/12 04:55:23;;;;;;;42.53;23.93;;;;;;;-2.26;95.35;97445.28;2189008;81;20975;-80
2022/12/12 04:58:23;;;;;;;40.53;22.70;;;;;;;-2.32;95.32;97450.16;2189638;81;20976;-81
2022/12/12 05:01:23;;;;;;;40.83;24.47;;;;;;;-2.37;95.37;97448.23;2188970;81;21034;-82
2022/12/12 05:04:23;;;;;;;39.53;23.30;;;;;;;-2.41;95.47;97448.92;2188035;81;21039;-82
2022/12/12 05:07:24;;;;;;;36.73;23.17;;;;;;;-2.44;95.70;97448.80;2187946;81;20987;-81
2022/12/12 05:10:24;;;;;;;41.03;23.77;;;;;;;-2.45;95.77;97447.06;2188010;81;21011;-82
2022/12/12 05:13:29;;;;;;;36.03;21.63;;;;;;;-2.43;95.95;97445.44;2187929;81;21234;-82
2022/12/12 05:16:27;;;;;;;38.97;23.90;;;;;;;-2.40;95.78;97439.17;2171040;81;20944;-81
2022/12/12 05:19:27;;;;;;;39.97;24.30;;;;;;;-2.36;95.71;97438.48;2187892;81;21317;-81
2022/12/12 05:22:28;;;;;;;41.30;24.47;;;;;;;-2.34;95.65;97437.72;2188004;81;21391;-81
2022/12/12 05:25:28;;;;;;;42.37;25.43;;;;;;;-2.31;95.40;97443.36;2186537;81;21411;-80
2022/12/12 05:28:28;;;;;;;44.93;25.77;;;;;;;-2.32;95.50;97442.89;2187659;81;20999;-80
2022/12/12 05:31:29;;;;;;;41.30;22.67;;;;;;;-2.33;95.40;97445.86;2187254;81;20967;-79
2022/12/12 05:34:29;;;;;;;50.53;26.27;;;;;;;-2.33;95.51;97443.70;2186161;81;21026;-80
2022/12/12 05:37:30;;;;;;;54.27;29.60;;;;;;;-2.34;95.53;97444.11;2185083;81;21422;-80
2022/12/12 05:40:30;;;;;;;56.40;32.07;;;;;;;-2.33;95.60;97441.16;2186236;81;21051;-81
2022/12/12 05:43:31;;;;;;;75.67;38.63;;;;;;;-2.35;95.56;97436.39;2186259;81;20995;-81
2022/12/12 05:46:31;;;;;;;56.90;30.37;;;;;;;-2.35;95.61;97438.94;2186678;81;21055;-81
2022/12/12 05:49:31;;;;;;;51.37;29.67;;;;;;;-2.34;95.76;97439.41;2186109;81;20940;-80
2022/12/12 05:52:32;;;;;;;54.43;29.17;;;;;;;-2.33;95.69;97438.19;2186032;81;21035;-81
2022/12/12 05:55:32;;;;;;;53.33;29.37;;;;;;;-2.33;95.65;97437.31;2186273;81;20967;-82
2022/12/12 05:58:33;;;;;;;46.13;26.77;;;;;;;-2.30;95.82;97440.86;2186476;81;20963;-81
2022/12/12 06:01:33;;;;;;;51.17;27.47;;;;;;;-2.25;95.74;97444.47;2186661;81;21390;-83
2022/12/12 06:04:33;;;;;;;50.30;28.50;;;;;;;-2.22;95.79;97445.00;2187435;81;21008;-83
2022/12/12 06:07:34;;;;;;;54.33;30.23;;;;;;;-2.23;95.51;97438.55;2187822;81;21007;-81
2022/12/12 06:10:34;;;;;;;51.37;26.37;;;;;;;-2.18;95.71;97437.91;2186914;81;20987;-83
2022/12/12 06:13:35;;;;;;;48.47;27.30;;;;;;;-2.15;95.51;97440.99;2187508;81;21339;-84
2022/12/12 06:16:35;;;;;;;53.53;31.07;;;;;;;-2.09;95.46;97443.38;2187445;81;20971;-83
2022/12/12 06:19:35;;;;;;;68.03;39.63;;;;;;;-2.10;95.16;97450.59;2187089;81;20999;-82
2022/12/12 06:22:36;;;;;;;70.43;40.13;;;;;;;-2.09;95.13;97456.56;2186528;81;21467;-81
2022/12/12 06:25:36;;;;;;;56.33;34.53;;;;;;;-2.13;95.06;97453.42;2186732;81;20956;-83
2022/12/12 06:28:37;;;;;;;58.70;31.67;;;;;;;-2.15;95.21;97457.20;2186377;81;21371;-81
2022/12/12 06:31:37;;;;;;;60.70;31.50;;;;;;;-2.18;95.33;97454.53;2186151;81;21372;-82
2022/12/12 06:34:38;;;;;;;60.63;31.27;;;;;;;-2.18;95.31;97452.38;2186517;81;21023;-83
2022/12/12 06:37:38;;;;;;;48.37;29.37;;;;;;;-2.20;95.36;97456.16;2186581;81;20996;-83
2022/12/12 06:40:39;;;;;;;65.43;37.23;;;;;;;-2.18;95.58;97462.20;2185650;81;21020;-82
2022/12/12 06:43:39;;;;;;;54.87;32.67;;;;;;;-2.14;95.47;97467.02;2186212;81;20992;-83
2022/12/12 06:46:39;;;;;;;61.63;33.97;;;;;;;-2.08;95.57;97466.86;2186068;81;21007;-83
2022/12/12 06:49:40;;;;;;;52.33;30.40;;;;;;;-2.05;95.34;97471.22;2186297;81;21039;-82
2022/12/12 06:52:40;;;;;;;53.50;30.33;;;;;;;-2.02;95.47;97477.31;2186102;81;21036;-83
2022/12/12 06:55:40;;;;;;;60.03;34.63;;;;;;;-2.01;95.27;97471.80;2186879;81;20999;-82
2022/12/12 06:58:41;;;;;;;56.20;31.67;;;;;;;-1.95;95.19;97469.48;2186212;81;20984;-81
2022/12/12 07:01:41;;;;;;;60.33;34.27;;;;;;;-1.93;95.12;97472.97;2187112;81;21003;-83
2022/12/12 07:04:42;;;;;;;63.17;36.83;;;;;;;-1.94;94.96;97469.53;2186745;81;20940;-83
2022/12/12 07:07:42;;;;;;;61.43;34.47;;;;;;;-1.89;94.86;97471.39;2186439;81;21402;-82
2022/12/12 07:10:43;;;;;;;58.30;32.20;;;;;;;-1.90;94.79;97475.64;2185919;81;21055;-83
2022/12/12 07:13:43;;;;;;;57.83;33.37;;;;;;;-1.86;94.92;97477.91;2186303;81;20991;-85
2022/12/12 07:16:43;;;;;;;59.33;34.43;;;;;;;-1.82;95.00;97490.00;2186499;81;20995;-84
2022/12/12 07:19:44;;;;;;;68.80;35.97;;;;;;;-1.77;94.81;97481.69;2185774;81;20972;-83
2022/12/12 07:22:44;;;;;;;69.33;37.93;;;;;;;-1.71;94.70;97493.86;2185834;81;21475;-82
2022/12/12 07:25:45;;;;;;;69.10;37.80;;;;;;;-1.65;94.93;97496.25;2185806;81;21019;-83
2022/12/12 07:28:45;;;;;;;68.90;38.87;;;;;;;-1.54;94.61;97500.48;2186309;81;20979;-83
2022/12/12 07:31:46;;;;;;;76.23;40.47;;;;;;;-1.50;94.26;97498.50;2186405;81;21007;-82
2022/12/12 07:34:46;;;;;;;69.93;38.93;;;;;;;-1.48;94.13;97495.59;2186081;81;21462;-84
2022/12/12 07:37:46;;;;;;;80.40;46.07;;;;;;;-1.41;94.05;97498.84;2185972;81;21402;-85
2022/12/12 07:40:47;;;;;;;65.60;35.90;;;;;;;-1.34;94.19;97502.50;2185467;81;21091;-85
2022/12/12 07:43:48;;;;;;;60.97;35.37;;;;;;;-1.25;94.11;97495.56;2186209;81;20995;-82
2022/12/12 07:46:48;;;;;;;49.90;29.90;;;;;;;-1.23;93.56;97499.91;2186566;81;20999;-84
2022/12/12 07:49:48;;;;;;;50.43;29.40;;;;;;;-1.21;93.49;97501.25;2186506;81;21855;-84
2022/12/12 07:52:48;;;;;;;54.90;32.57;;;;;;;-1.13;93.74;97497.27;2186200;81;20984;-85
2022/12/12 07:55:49;;;;;;;61.77;38.43;;;;;;;-1.04;93.41;97505.28;2185763;81;21335;-83
2022/12/12 07:58:50;;;;;;;58.77;34.07;;;;;;;-1.00;93.32;97497.77;2186840;81;21273;-84
2022/12/12 08:01:50;;;;;;;71.97;35.43;;;;;;;-0.87;93.15;97495.63;2186205;81;21109;-84
2022/12/12 08:04:50;;;;;;;54.17;30.37;;;;;;;-0.85;92.30;97500.42;2185339;81;20975;-86
2022/12/12 08:07:50;;;;;;;55.17;29.50;;;;;;;-0.83;92.54;97496.23;2185583;81;21042;-85
2022/12/12 08:10:51;;;;;;;60.33;32.00;;;;;;;-0.84;92.15;97494.08;2185442;81;21047;-84
2022/12/12 08:13:51;;;;;;;43.23;27.80;;;;;;;-0.84;92.63;97497.92;2185622;81;21347;-82
2022/12/12 08:16:52;;;;;;;66.23;41.40;;;;;;;-0.71;92.29;97505.62;2185608;81;20987;-83
2022/12/12 08:19:52;;;;;;;51.17;34.20;;;;;;;-0.74;92.08;97500.39;2185816;81;21082;-82
2022/12/12 08:22:53;;;;;;;47.43;29.80;;;;;;;-0.59;92.58;97496.19;2173786;81;21003;-84
2022/12/12 08:25:53;;;;;;;47.80;31.47;;;;;;;-0.46;92.31;97503.05;2169915;81;21039;-84
2022/12/12 08:28:53;;;;;;;47.67;30.77;;;;;;;-0.36;92.11;97500.38;2169965;81;20979;-84
2022/12/12 08:31:54;;;;;;;44.03;28.93;;;;;;;-0.25;91.22;97504.17;2169424;81;20968;-85
2022/12/12 08:34:54;;;;;;;49.07;31.10;;;;;;;-0.25;91.02;97501.60;2169729;81;21048;-85
2022/12/12 08:37:55;;;;;;;47.70;30.10;;;;;;;-0.22;91.09;97497.86;2169628;81;20992;-85
2022/12/12 08:40:55;;;;;;;50.87;30.93;;;;;;;-0.16;90.36;97499.33;2169246;81;21044;-85
2022/12/12 08:43:55;;;;;;;52.43;30.93;;;;;;;-0.15;89.92;97497.23;2169551;82;21048;-85
2022/12/12 08:46:56;;;;;;;49.63;29.83;;;;;;;-0.17;89.86;97492.87;2170093;82;21645;-84
2022/12/12 08:49:56;;;;;;;54.93;32.87;;;;;;;-0.18;90.09;97495.84;2170027;81;21000;-85
2022/12/12 08:52:57;;;;;;;46.17;29.53;;;;;;;-0.11;90.18;97500.35;2170006;81;20960;-85
2022/12/12 08:55:57;;;;;;;46.23;28.87;;;;;;;-0.01;89.77;97501.09;2170024;81;21014;-85
2022/12/12 08:58:57;;;;;;;42.00;27.07;;;;;;;0.02;89.76;97500.36;2170165;81;20980;-84
2022/12/12 09:01:58;;;;;;;49.70;31.13;;;;;;;0.03;88.84;97503.38;2170751;81;21027;-85
2022/12/12 09:04:58;;;;;;;42.37;30.00;;;;;;;-0.01;89.16;97502.80;2170160;81;20992;-84
2022/12/12 09:07:59;;;;;;;41.27;29.53;;;;;;;0.01;89.18;97503.75;2170006;81;21506;-85
2022/12/12 09:10:59;;;;;;;46.13;30.37;;;;;;;0.12;89.86;97500.23;2169731;82;21043;-83
2022/12/12 09:13:59;;;;;;;44.00;29.30;;;;;;;0.05;88.85;97503.02;2169807;81;20960;-85
2022/12/12 09:17:00;;;;;;;42.37;27.43;;;;;;;0.08;89.25;97503.11;2170208;81;21422;-84
2022/12/12 09:20:00;;;;;;;40.47;28.63;;;;;;;0.11;88.50;97495.92;2169962;81;21427;-86
2022/12/12 09:23:01;;;;;;;38.53;26.83;;;;;;;0.10;88.49;97494.18;2180849;81;21509;-85
2022/12/12 09:26:01;;;;;;;42.73;26.93;;;;;;;0.12;88.98;97504.08;2186645;81;21059;-85
2022/12/12 09:29:02;;;;;;;46.57;30.60;;;;;;;0.12;88.42;97500.23;2186909;81;20949;-86
2022/12/12 09:32:05;;;;;;;49.80;31.53;;;;;;;0.13;88.87;97500.69;2186112;81;20992;-83
2022/12/12 09:35:03;;;;;;;68.20;38.97;;;;;;;0.11;88.07;97497.20;2186396;81;21006;-84
2022/12/12 09:38:03;;;;;;;67.17;39.50;;;;;;;0.13;89.00;97500.69;2186327;81;21011;-86
2022/12/12 09:41:03;;;;;;;70.33;34.40;;;;;;;0.13;89.00;97500.69;2186340;81;21024;-85
2022/12/12 09:44:06;;;;;;;54.53;30.73;;;;;;;0.16;88.64;97496.52;2169580;81;21054;-85
2022/12/12 09:47:06;;;;;;;63.93;35.33;;;;;;;0.18;88.21;97501.29;2187234;81;21387;-83
2022/12/12 09:50:06;;;;;;;55.03;35.37;;;;;;;0.24;88.62;97504.45;2186721;81;21090;-86
2022/12/12 09:53:07;;;;;;;59.93;39.10;;;;;;;0.23;87.94;97506.16;2187563;81;20967;-85
2022/12/12 09:56:07;;;;;;;52.83;33.23;;;;;;;0.22;88.56;97509.55;2186458;81;21379;-84
2022/12/12 09:59:08;;;;;;;64.37;37.53;;;;;;;0.22;87.75;97507.39;2186093;81;20933;-83
2022/12/12 10:02:08;;;;;;;56.73;36.03;;;;;;;0.18;88.33;97502.98;2186512;81;20936;-84
2022/12/12 10:05:11;;;;;;;63.37;37.83;;;;;;;0.05;88.39;97511.13;2187094;81;21015;-82
2022/12/12 10:08:12;;;;;;;60.90;35.70;;;;;;;0.04;90.26;97510.26;2186732;81;21446;-85
2022/12/12 10:11:49;;;;;;;52.93;33.80;;;;;;;0.19;90.36;97512.42;2186909;81;21023;-84
2022/12/12 10:14:13;;;;;;;55.73;31.67;;;;;;;0.22;89.45;97512.52;2186951;81;20995;-86
2022/12/12 10:17:13;;;;;;;56.80;34.27;;;;;;;0.18;88.58;97510.69;2186178;81;20952;-86
2022/12/12 10:20:13;;;;;;;55.57;33.40;;;;;;;0.36;90.68;97504.83;2186207;81;21530;-82
2022/12/12 10:23:14;;;;;;;54.30;33.40;;;;;;;0.43;89.13;97508.03;2185555;81;21015;-83
2022/12/12 10:26:14;;;;;;;48.30;31.47;;;;;;;0.41;88.42;97505.84;2186152;81;21031;-82
2022/12/12 10:29:14;;;;;;;50.07;30.97;;;;;;;0.38;87.70;97503.17;2186010;81;21332;-83
2022/12/12 10:32:15;;;;;;;54.80;31.87;;;;;;;0.20;87.14;97511.19;2186796;81;21058;-86
2022/12/12 10:35:16;;;;;;;50.77;32.33;;;;;;;0.12;88.64;97504.95;2186206;81;20987;-86
2022/12/12 10:38:16;;;;;;;59.10;33.70;;;;;;;0.19;88.39;97503.44;2186345;81;22008;-85
2022/12/12 10:41:16;;;;;;;56.57;32.73;;;;;;;0.25;88.35;97507.06;2186364;81;20980;-86
2022/12/12 10:44:16;;;;;;;60.50;32.63;;;;;;;0.28;88.69;97499.88;2186526;81;20992;-87
2022/12/12 10:47:17;;;;;;;60.90;35.83;;;;;;;0.39;89.10;97498.50;2186906;81;21028;-86
2022/12/12 10:50:17;;;;;;;50.27;33.43;;;;;;;0.42;88.19;97496.44;2187080;81;20932;-85
2022/12/12 10:53:18;;;;;;;49.80;31.43;;;;;;;0.46;88.70;97496.98;2186896;81;20971;-86
2022/12/12 10:56:18;;;;;;;62.50;37.47;;;;;;;0.47;87.95;97499.59;2187336;81;21023;-84
2022/12/12 10:59:18;;;;;;;57.13;36.03;;;;;;;0.51;88.43;97495.42;2186780;81;20960;-84
2022/12/12 11:02:22;;;;;;;50.13;32.70;;;;;;;0.58;86.78;97503.77;2186294;81;21441;-85
2022/12/12 11:05:22;;;;;;;54.40;33.57;;;;;;;0.61;87.33;97493.17;2186716;81;21257;-85
2022/12/12 11:08:23;;;;;;;52.43;31.40;;;;;;;0.70;86.94;97500.27;2187238;81;21383;-84
2022/12/12 11:11:23;;;;;;;49.17;31.67;;;;;;;0.78;86.94;97495.34;2186505;81;21019;-86
2022/12/12 11:14:24;;;;;;;52.63;33.50;;;;;;;0.82;87.12;97493.32;2186498;81;21265;-87
2022/12/12 11:17:24;;;;;;;50.10;30.43;;;;;;;0.77;85.73;97498.33;2187092;81;21043;-84
2022/12/12 11:20:25;;;;;;;55.37;33.53;;;;;;;0.69;86.07;97493.80;2186552;81;20987;-85
2022/12/12 11:23:25;;;;;;;50.40;32.10;;;;;;;0.66;86.64;97497.56;2175665;81;21028;-85
2022/12/12 11:26:25;;;;;;;44.87;29.13;;;;;;;0.72;86.72;97494.76;2170114;81;21001;-84
2022/12/12 11:29:26;;;;;;;45.90;29.97;;;;;;;0.79;86.51;97495.80;2170249;81;21180;-84
2022/12/12 11:32:26;;;;;;;57.10;34.73;;;;;;;0.79;86.62;97494.52;2169798;81;20917;-85
2022/12/12 11:35:27;;;;;;;62.70;38.00;;;;;;;0.80;86.20;97496.26;2170093;82;20984;-84
2022/12/12 11:38:29;;;;;;;56.77;34.23;;;;;;;0.79;86.76;97490.25;2169986;81;21345;-85
2022/12/12 11:41:29;;;;;;;56.73;34.63;;;;;;;0.87;86.31;97499.49;2159458;82;21047;-86
2022/12/12 11:44:30;;;;;;;44.77;28.90;;;;;;;0.87;86.91;97500.77;2170738;81;20952;-85
2022/12/12 11:47:37;;;;;;;50.83;32.83;;;;;;;0.91;86.33;97496.18;2160007;82;21051;-85
2022/12/12 11:50:33;;;;;;;52.80;32.77;;;;;;;0.92;86.61;97504.34;2170776;82;21210;-83
2022/12/12 11:53:33;;;;;;;54.13;31.63;;;;;;;0.77;86.36;97501.31;2171174;81;20965;-83
2022/12/12 11:56:33;;;;;;;57.90;33.87;;;;;;;0.77;86.80;97504.75;2171884;81;20999;-88
2022/12/12 11:59:34;;;;;;;78.07;44.17;;;;;;;0.75;87.33;97505.53;2171876;81;20964;-86
2022/12/12 12:02:34;;;;;;;68.50;40.33;;;;;;;0.75;87.44;97503.84;2170122;81;21020;-86
2022/12/12 12:05:37;;;;;;;63.57;36.40;;;;;;;0.70;87.39;97507.10;2159753;82;21004;-84
2022/12/12 12:08:39;;;;;;;51.80;30.80;;;;;;;0.64;87.73;97505.23;2171015;82;21437;-85
2022/12/12 12:11:37;;;;;;;58.83;33.23;;;;;;;0.59;87.90;97508.07;2170801;81;21012;-85
2022/12/12 12:14:38;;;;;;;54.97;32.70;;;;;;;0.50;88.27;97507.80;2170663;81;20988;-85
2022/12/12 12:17:38;;;;;;;49.27;30.43;;;;;;;0.37;88.77;97509.14;2169871;81;20986;-84
2022/12/12 12:20:39;;;;;;;58.50;31.87;;;;;;;0.24;89.10;97510.45;2169996;81;21074;-85
2022/12/12 12:23:39;;;;;;;64.80;39.10;;;;;;;0.22;89.47;97506.98;2169978;81;21055;-85
2022/12/12 12:26:39;;;;;;;69.07;39.77;;;;;;;0.18;89.70;97508.12;2169666;81;21020;-84
2022/12/12 12:29:40;;;;;;;47.70;30.37;;;;;;;0.18;90.03;97511.97;2169642;81;20945;-84
2022/12/12 12:32:40;;;;;;;48.03;30.53;;;;;;;0.16;89.96;97510.64;2169481;81;21447;-84
2022/12/12 12:35:41;;;;;;;46.47;31.40;;;;;;;0.16;90.13;97514.48;2170067;81;20996;-84
2022/12/12 12:38:42;;;;;;;43.17;28.73;;;;;;;0.19;90.49;97514.58;2170322;81;21008;-83
2022/12/12 12:41:42;;;;;;;42.93;28.03;;;;;;;0.32;90.89;97515.83;2170272;81;21039;-83
2022/12/12 12:44:42;;;;;;;43.03;27.73;;;;;;;0.24;90.20;97512.16;2170317;82;20968;-84
2022/12/12 12:47:51;;;;;;;36.33;25.53;;;;;;;0.24;90.20;97512.16;2170204;81;20996;-83
2022/12/12 12:50:51;;;;;;;42.17;25.10;;;;;;;0.17;90.38;97520.48;2169893;82;20944;-83
2022/12/12 12:53:51;;;;;;;46.33;28.67;;;;;;;0.19;95.96;97525.26;2169928;82;20949;-83
2022/12/12 12:56:54;;;;;;;45.03;26.83;;;;;;;0.37;91.01;97515.55;2159277;82;21233;-82
2022/12/12 12:59:54;;;;;;;45.80;29.00;;;;;;;0.30;90.75;97524.77;2170361;81;21031;-80
2022/12/12 13:02:57;;;;;;;37.10;23.80;;;;;;;0.23;90.57;97524.53;2170876;81;21040;-83
2022/12/12 13:05:58;;;;;;;51.67;29.77;;;;;;;0.20;90.78;97527.00;2170975;81;21016;-83
2022/12/12 13:08:58;;;;;;;46.03;28.60;;;;;;;0.13;90.96;97525.06;2170651;81;21018;-81
2022/12/12 13:12:01;;;;;;;50.00;29.60;;;;;;;0.11;91.18;97531.44;2170242;82;21039;-84
2022/12/12 13:15:02;;;;;;;50.33;30.40;;;;;;;0.04;91.36;97529.50;2170241;81;21031;-83
2022/12/12 13:18:03;;;;;;;46.77;26.97;;;;;;;0.05;91.46;97535.50;2170022;81;21004;-82
2022/12/12 13:21:03;;;;;;;40.47;26.40;;;;;;;0.20;95.63;97535.98;2169514;81;21012;-83
2022/12/12 13:24:03;;;;;;;41.17;25.93;;;;;;;0.23;91.37;97544.65;2179550;81;21459;-81
2022/12/12 13:27:03;;;;;;;45.10;25.60;;;;;;;0.08;91.44;97543.30;2185546;81;20909;-82
2022/12/12 13:30:04;;;;;;;35.50;23.93;;;;;;;-0.01;91.67;97552.41;2185882;81;20984;-81
2022/12/12 13:33:04;;;;;;;39.97;22.67;;;;;;;-0.12;91.89;97552.47;2185492;81;21977;-80
2022/12/12 13:36:05;;;;;;;45.03;25.43;;;;;;;-0.18;92.41;97560.38;2185052;81;21104;-81
2022/12/12 13:39:05;;;;;;;35.10;22.57;;;;;;;-0.25;92.59;97556.73;2185964;81;20968;-81
2022/12/12 13:42:06;;;;;;;39.77;23.80;;;;;;;-0.28;92.76;97568.58;2185906;81;21547;-80
2022/12/12 13:45:06;;;;;;;39.93;23.03;;;;;;;-0.36;92.77;97576.02;2185914;81;20995;-81
2022/12/12 13:48:06;;;;;;;35.67;23.13;;;;;;;-0.41;93.07;97577.55;2186652;81;20976;-82
2022/12/12 13:51:08;;;;;;;43.70;26.70;;;;;;;-0.46;92.97;97577.40;2186378;81;20995;-82
2022/12/12 13:54:09;;;;;;;45.60;25.30;;;;;;;-0.46;93.20;97579.96;2185901;81;21701;-82
2022/12/12 13:57:08;;;;;;;46.50;27.33;;;;;;;-0.43;93.17;97579.20;2186349;81;20983;-82
2022/12/12 14:00:09;;;;;;;53.60;26.97;;;;;;;-0.45;92.99;97584.27;2186074;81;21027;-79
2022/12/12 14:03:09;;;;;;;44.27;25.60;;;;;;;-0.42;93.14;97584.78;2184297;81;20936;-79
2022/12/12 14:06:10;;;;;;;48.80;28.33;;;;;;;-0.41;93.01;97585.25;2184718;81;21986;-79